Sunday, August 28, 2016, 6:17 AM EDT

KSEG, Selinsgrove Penn Valley Airport

Location: Selinsgrove, PA, United States Lat: 40.817
Local Time: 6:17 AM EDT (10:17 GMT) Lon: -76.867
Time Zone: US/Eastern Elev: 449 ft

Show me the last for .
Show Decoded

2016-08-28 06:10 METAR KSEG 281010Z AUTO 00000KT 4SM BR CLR 17/17 A3025 RMK AO2 T01720172 =
2016-08-28 06:03 METAR KSEG 281003Z AUTO 00000KT 2 1/2SM BR CLR 17/17 A3025 RMK AO2 VIS 1 3/4V5
                 T01670167 =
2016-08-28 05:53 METAR KSEG 280953Z AUTO 00000KT 3SM BR CLR 17/17 A3025 RMK AO2 SLP240 T01670167
                 =
2016-08-28 04:53 METAR KSEG 280853Z AUTO 00000KT 6SM BR CLR 17/17 A3023 RMK AO2 SLP234 T01720172
                 53012 =
2016-08-28 03:53 METAR KSEG 280753Z AUTO 34004KT 6SM BR CLR 18/18 A3022 RMK AO2 SLP228 T01780178
                 =
2016-08-28 02:53 METAR KSEG 280653Z AUTO 00000KT 5SM BR CLR 18/18 A3020 RMK AO2 SLP222 T01830183
                 =
2016-08-28 01:53 METAR KSEG 280553Z AUTO 00000KT 6SM BR CLR 18/18 A3020 RMK AO2 SLP222 T01830183
                 10233 20183 58004 =
2016-08-28 00:53 METAR KSEG 280453Z AUTO 00000KT 7SM CLR 19/19 A3021 RMK AO2 SLP225 T01890189
                 403060167 =
2016-08-27 23:53 METAR KSEG 280353Z AUTO 00000KT 8SM CLR 19/19 A3021 RMK AO2 SLP225 T01940194 =
2016-08-27 22:53 METAR KSEG 280253Z AUTO 00000KT 8SM CLR 20/20 A3021 RMK AO2 SLP227 T02000200
                 51012 =
2016-08-27 21:53 METAR KSEG 280153Z AUTO 00000KT 10SM CLR 21/21 A3020 RMK AO2 SLP225 T02060206 =
2016-08-27 20:53 METAR KSEG 280053Z AUTO 00000KT 10SM CLR 22/22 A3020 RMK AO2 SLP223 T02170217 =
2016-08-27 19:53 METAR KSEG 272353Z AUTO 00000KT 10SM CLR 23/22 A3018 RMK AO2 SLP216 T02330217
                 10306 20233 53005 =
2016-08-27 18:53 METAR KSEG 272253Z AUTO 13005KT 10SM CLR 28/20 A3017 RMK AO2 SLP211 T02830200 =
2016-08-27 17:53 METAR KSEG 272153Z AUTO VRB04KT 10SM CLR 30/20 A3016 RMK AO2 SLP210 T03000200 =
2016-08-27 16:53 METAR KSEG 272053Z AUTO 14004KT 10SM CLR 30/19 A3016 RMK AO2 SLP210 T03000194
                 56010 =
2016-08-27 15:53 METAR KSEG 271953Z AUTO 19003KT 10SM CLR 30/21 A3017 RMK AO2 SLP213 T03000206 =
2016-08-27 14:53 METAR KSEG 271853Z AUTO VRB03KT 10SM CLR 30/19 A3018 RMK AO2 SLP215 T03000194 =
2016-08-27 13:53 METAR KSEG 271753Z AUTO 00000KT 10SM CLR 29/21 A3019 RMK AO2 SLP220 T02940206
                 10294 20194 58011 =
2016-08-27 12:53 METAR KSEG 271653Z AUTO 00000KT 10SM CLR 29/20 A3020 RMK AO2 SLP223 T02890200 =
2016-08-27 11:53 METAR KSEG 271553Z AUTO 00000KT 10SM CLR 28/20 A3022 RMK AO2 SLP229 T02830200 =
2016-08-27 10:53 METAR KSEG 271453Z AUTO 00000KT 10SM CLR 26/19 A3022 RMK AO2 SLP231 T02610194
                 50002 =
2016-08-27 09:53 METAR KSEG 271353Z AUTO 02003KT 10SM CLR 26/20 A3023 RMK AO2 SLP235 T02560200 =
2016-08-27 08:53 METAR KSEG 271253Z AUTO 00000KT 10SM CLR 23/21 A3023 RMK AO2 SLP233 T02280211 =
2016-08-27 07:53 METAR KSEG 271153Z AUTO 00000KT 6SM BR CLR 19/19 A3022 RMK AO2 SLP230 T01940194
                 10194 20167 51017 =
2016-08-27 06:53 METAR KSEG 271053Z AUTO 00000KT 4SM BR CLR 17/17 A3021 RMK AO2 SLP228 T01670167
                 =

Support USWX by starting your Amazon purchase here.